Time;durP1;ratioP1;P1;durP2;ratioP2;P2;SDS_P1;SDS_P2;PMS_P1;PMS_P2;Temp;Humidity;BMP_temperature;BMP_pressure;BME280_temperature;BME280_humidity;BME280_pressure;Samples;Min_cycle;Max_cycle;Signal;HPM_P1;HPM_P2
2021/07/31 00:01:59;;;;;;;9.95;7.65;;;30.30;92.40;;;;;;5093829;28;20049;-52
2021/07/31 00:04:27;;;;;;;8.77;7.03;;;30.30;92.50;;;;;;5090273;28;20115;-51
2021/07/31 00:06:55;;;;;;;9.77;6.90;;;30.30;92.60;;;;;;5093137;28;20105;-51
2021/07/31 00:09:23;;;;;;;10.90;7.38;;;30.30;92.70;;;;;;5073750;28;20044;-51
2021/07/31 00:12:04;;;;;;;12.93;7.22;;;30.20;93.10;;;;;;5093923;28;20059;-51
2021/07/31 00:14:32;;;;;;;13.98;8.43;;;30.20;93.00;;;;;;5092993;28;20040;-51
2021/07/31 00:17:05;;;;;;;14.00;7.45;;;30.20;93.30;;;;;;5093506;28;20040;-53
2021/07/31 00:19:35;;;;;;;12.45;7.20;;;30.20;93.50;;;;;;5093153;28;20123;-50
2021/07/31 00:22:03;;;;;;;11.25;7.88;;;30.20;93.70;;;;;;5083374;28;20086;-53
2021/07/31 00:24:31;;;;;;;13.32;6.65;;;30.20;93.90;;;;;;5093191;28;20032;-51
2021/07/31 00:26:59;;;;;;;13.63;7.72;;;30.10;93.80;;;;;;5093210;28;20060;-52
2021/07/31 00:29:29;;;;;;;12.32;7.15;;;30.20;94.00;;;;;;5089980;28;20040;-51
2021/07/31 00:31:59;;;;;;;11.32;7.05;;;30.10;94.10;;;;;;5093356;28;20047;-50
2021/07/31 00:34:27;;;;;;;12.23;7.50;;;30.10;94.30;;;;;;5090091;28;20122;-50
2021/07/31 00:36:57;;;;;;;10.82;7.00;;;30.10;94.40;;;;;;5093447;28;20040;-50
2021/07/31 00:39:25;;;;;;;11.07;7.95;;;30.10;94.50;;;;;;5093294;28;20048;-48
2021/07/31 00:41:54;;;;;;;11.52;7.28;;;30.10;94.60;;;;;;5093191;28;20044;-49
2021/07/31 00:44:24;;;;;;;11.73;7.63;;;30.10;94.80;;;;;;5090417;28;20036;-50
2021/07/31 00:46:52;;;;;;;15.25;7.30;;;30.10;94.80;;;;;;5082684;28;20052;-50
2021/07/31 00:49:20;;;;;;;12.40;7.43;;;30.00;94.90;;;;;;5092550;28;20094;-48
2021/07/31 00:51:48;;;;;;;13.05;7.90;;;30.00;95.00;;;;;;5083277;28;20123;-51
2021/07/31 00:54:18;;;;;;;14.82;8.27;;;30.00;95.10;;;;;;5092792;28;20040;-50
2021/07/31 00:56:46;;;;;;;12.55;8.63;;;30.00;95.30;;;;;;5066393;28;20051;-49
2021/07/31 00:59:15;;;;;;;21.85;8.00;;;30.00;95.40;;;;;;5090385;28;20045;-49
2021/07/31 01:01:46;;;;;;;11.63;8.43;;;29.90;95.50;;;;;;5093142;28;20071;-51
2021/07/31 01:04:15;;;;;;;14.65;8.63;;;29.90;95.60;;;;;;5092322;28;20482;-49
2021/07/31 01:06:46;;;;;;;10.77;7.07;;;29.90;95.70;;;;;;5093225;28;20043;-50
2021/07/31 01:09:15;;;;;;;10.38;7.65;;;29.90;96.10;;;;;;5092480;28;20227;-49
2021/07/31 01:11:49;;;;;;;14.75;9.18;;;29.90;95.90;;;;;;5092592;28;20063;-49
2021/07/31 01:14:17;;;;;;;17.88;7.90;;;29.80;96.10;;;;;;5096229;28;20064;-50
2021/07/31 01:16:46;;;;;;;15.18;8.65;;;29.80;96.30;;;;;;5096671;28;20048;-49
2021/07/31 01:19:13;;;;;;;10.45;8.07;;;29.80;96.50;;;;;;5096342;28;20486;-49
2021/07/31 01:21:44;;;;;;;14.30;8.20;;;29.80;96.60;;;;;;5086402;28;20040;-51
2021/07/31 01:24:30;;;;;;;14.48;9.45;;;29.70;96.80;;;;;;5095988;28;20482;-49
2021/07/31 01:26:59;;;;;;;13.48;8.15;;;29.70;97.00;;;;;;5085345;28;20036;-48
2021/07/31 01:29:28;;;;;;;10.32;7.65;;;29.70;97.20;;;;;;5095797;28;20040;-48
2021/07/31 01:31:56;;;;;;;13.05;9.70;;;29.70;97.30;;;;;;5096322;28;20075;-49
2021/07/31 01:34:24;;;;;;;14.35;9.88;;;29.70;97.40;;;;;;5092551;28;20043;-48
2021/07/31 01:36:53;;;;;;;16.98;9.05;;;29.70;97.50;;;;;;5095717;28;20032;-49
2021/07/31 01:39:23;;;;;;;12.35;8.95;;;29.60;97.50;;;;;;5095008;28;20513;-49
2021/07/31 01:41:51;;;;;;;14.80;8.82;;;29.60;97.70;;;;;;5096129;28;20051;-49
2021/07/31 01:44:20;;;;;;;15.13;8.73;;;29.60;98.10;;;;;;5076677;28;20036;-48
2021/07/31 01:46:48;;;;;;;15.38;9.18;;;29.60;98.00;;;;;;5085511;28;20129;-49
2021/07/31 01:49:18;;;;;;;19.23;9.55;;;29.60;98.20;;;;;;5076367;28;20036;-49
2021/07/31 01:51:53;;;;;;;16.17;10.60;;;29.60;98.20;;;;;;5085013;28;20044;-49
2021/07/31 01:54:22;;;;;;;14.90;10.10;;;29.50;98.30;;;;;;5094855;28;20048;-49
2021/07/31 01:56:50;;;;;;;15.73;10.15;;;29.50;98.40;;;;;;5084578;28;20075;-49
2021/07/31 01:59:22;;;;;;;18.13;9.45;;;29.50;98.60;;;;;;5073658;28;20075;-49
2021/07/31 02:01:52;;;;;;;17.65;11.68;;;29.50;98.80;;;;;;5085644;28;20145;-49
2021/07/31 02:04:23;;;;;;;17.70;11.98;;;29.40;98.90;;;;;;5091849;28;20032;-51
2021/07/31 02:07:20;;;;;;;16.33;10.52;;;29.40;99.00;;;;;;5079527;28;20071;-49
2021/07/31 02:09:48;;;;;;;15.52;10.38;;;29.40;99.10;;;;;;5090913;28;20067;-51
2021/07/31 02:12:17;;;;;;;15.35;10.40;;;29.40;99.20;;;;;;5081709;28;20040;-48
2021/07/31 02:14:47;;;;;;;18.85;11.57;;;29.40;99.30;;;;;;5069543;28;20098;-48
2021/07/31 02:17:22;;;;;;;19.02;11.38;;;29.40;99.30;;;;;;5088026;28;20068;-48
2021/07/31 02:19:50;;;;;;;15.43;10.50;;;29.40;99.40;;;;;;5095333;28;20040;-48
2021/07/31 02:22:38;;;;;;;17.30;12.25;;;29.30;99.50;;;;;;5089657;28;20130;-49
2021/07/31 02:25:24;;;;;;;21.52;11.55;;;29.40;99.60;;;;;;5094056;28;20066;-49
2021/07/31 02:28:14;;;;;;;22.33;12.02;;;29.40;99.50;;;;;;5075206;28;20508;-49
2021/07/31 02:30:42;;;;;;;18.83;11.13;;;29.40;99.60;;;;;;5083991;28;20040;-48
2021/07/31 02:33:10;;;;;;;19.75;12.27;;;29.40;99.60;;;;;;5095319;28;20043;-48
2021/07/31 02:35:38;;;;;;;15.70;11.13;;;29.30;99.70;;;;;;5094581;28;20081;-49
2021/07/31 02:38:24;;;;;;;17.95;10.95;;;29.30;99.90;;;;;;5074792;28;20083;-49
2021/07/31 02:40:53;;;;;;;16.35;11.02;;;29.30;99.90;;;;;;5080890;28;20093;-49
2021/07/31 02:43:22;;;;;;;19.02;12.27;;;29.30;99.90;;;;;;5094760;28;20043;-50
2021/07/31 02:45:49;;;;;;;17.90;11.23;;;29.20;99.90;;;;;;5094042;28;20055;-48
2021/07/31 02:48:17;;;;;;;16.48;11.45;;;29.20;99.90;;;;;;5093892;28;20040;-49
2021/07/31 02:50:47;;;;;;;16.98;11.98;;;29.20;99.90;;;;;;5083254;28;20047;-49
2021/07/31 02:53:26;;;;;;;17.73;12.23;;;29.20;99.90;;;;;;5093812;28;20074;-48
2021/07/31 02:55:54;;;;;;;16.60;11.65;;;29.20;99.90;;;;;;5082718;28;20048;-48
2021/07/31 02:58:22;;;;;;;18.17;11.82;;;29.20;99.90;;;;;;5094711;28;20494;-48
2021/07/31 03:00:50;;;;;;;15.68;11.02;;;29.20;99.90;;;;;;5083931;28;20056;-48
2021/07/31 03:03:18;;;;;;;19.88;11.35;;;29.20;99.90;;;;;;5093055;28;20098;-49
2021/07/31 03:05:54;;;;;;;13.60;10.48;;;29.20;99.90;;;;;;5084663;28;20074;-49
2021/07/31 03:08:23;;;;;;;14.93;11.02;;;29.10;99.90;;;;;;5093985;28;20036;-48
2021/07/31 03:10:56;;;;;;;21.80;11.63;;;29.10;99.90;;;;;;5083660;28;20047;-49
2021/07/31 03:13:24;;;;;;;23.88;11.65;;;29.10;99.90;;;;;;5076596;28;20040;-48
2021/07/31 03:15:53;;;;;;;21.80;12.27;;;29.10;99.90;;;;;;5094287;28;20036;-48
2021/07/31 03:18:23;;;;;;;14.85;11.18;;;29.10;99.90;;;;;;5093956;28;20032;-49
2021/07/31 03:20:53;;;;;;;16.17;11.25;;;29.10;99.90;;;;;;5083212;28;20051;-48
2021/07/31 03:23:44;;;;;;;20.55;13.98;;;29.00;99.90;;;;;;5090490;28;20059;-50
2021/07/31 03:26:12;;;;;;;16.00;11.27;;;29.00;99.90;;;;;;5056392;28;20045;-49
2021/07/31 03:28:40;;;;;;;14.30;11.82;;;29.00;99.90;;;;;;5039780;28;20044;-50
2021/07/31 03:31:08;;;;;;;13.27;10.05;;;28.90;99.90;;;;;;5080956;28;20040;-49
2021/07/31 03:33:36;;;;;;;21.45;12.65;;;28.90;99.90;;;;;;5076465;28;20056;-49
2021/07/31 03:36:05;;;;;;;15.50;11.55;;;28.90;99.90;;;;;;5065195;28;20036;-48
2021/07/31 03:38:38;;;;;;;15.88;12.32;;;28.90;99.90;;;;;;5093617;28;20040;-49
2021/07/31 03:41:05;;;;;;;20.65;12.45;;;28.90;99.90;;;;;;5093578;28;20109;-51
2021/07/31 03:43:40;;;;;;;16.17;11.07;;;28.90;99.90;;;;;;5075991;28;20074;-48
2021/07/31 03:46:10;;;;;;;17.63;11.40;;;28.90;99.90;;;;;;5094056;28;20052;-49
2021/07/31 03:48:38;;;;;;;19.83;11.02;;;29.00;99.90;;;;;;5076311;28;20070;-52
2021/07/31 03:51:08;;;;;;;18.13;11.20;;;29.00;99.90;;;;;;5063774;28;20501;-49
2021/07/31 03:53:40;;;;;;;17.13;10.98;;;29.00;99.90;;;;;;5092893;28;20047;-52
2021/07/31 03:56:09;;;;;;;16.20;11.13;;;29.10;99.90;;;;;;5064564;28;20105;-48
2021/07/31 03:58:42;;;;;;;13.90;11.13;;;29.00;99.90;;;;;;5092201;28;20080;-49
2021/07/31 04:01:10;;;;;;;24.02;10.90;;;29.10;99.90;;;;;;5093759;28;20036;-48
2021/07/31 04:03:39;;;;;;;17.20;12.55;;;29.10;99.90;;;;;;5092496;28;20036;-51
2021/07/31 04:06:07;;;;;;;18.65;11.45;;;29.10;99.90;;;;;;5086813;28;20097;-47
2021/07/31 04:08:44;;;;;;;21.05;11.65;;;29.10;99.90;;;;;;5093590;28;20044;-47
2021/07/31 04:11:30;;;;;;;26.90;12.55;;;29.10;99.90;;;;;;5083041;28;20469;-51
2021/07/31 04:14:16;;;;;;;20.60;11.48;;;29.10;99.90;;;;;;5092337;28;20401;-50
2021/07/31 04:17:00;;;;;;;22.70;14.40;;;29.10;99.90;;;;;;5093780;28;20393;-48
2021/07/31 04:19:29;;;;;;;20.88;12.23;;;29.10;99.90;;;;;;5093419;28;20120;-49
2021/07/31 04:21:57;;;;;;;18.45;12.38;;;29.20;99.90;;;;;;5094016;28;20056;-49
2021/07/31 04:24:31;;;;;;;25.80;13.40;;;29.10;99.90;;;;;;5089739;28;20043;-48
2021/07/31 04:26:58;;;;;;;24.92;13.77;;;29.20;99.90;;;;;;5083047;28;20449;-48
2021/07/31 04:29:26;;;;;;;27.58;14.63;;;29.20;99.90;;;;;;5093033;28;20494;-48
2021/07/31 04:31:53;;;;;;;29.35;15.68;;;29.20;99.90;;;;;;5083353;28;20502;-49
2021/07/31 04:34:21;;;;;;;25.10;14.60;;;29.20;99.90;;;;;;5093459;28;20042;-49
2021/07/31 04:36:49;;;;;;;21.40;14.93;;;29.20;99.90;;;;;;5093273;28;20064;-48
2021/07/31 04:39:16;;;;;;;26.52;13.43;;;29.20;99.90;;;;;;5093124;28;20406;-49
2021/07/31 04:41:44;;;;;;;22.35;12.90;;;29.20;99.90;;;;;;5093472;28;20028;-48
2021/07/31 04:44:12;;;;;;;22.73;13.50;;;29.20;99.90;;;;;;5092885;28;20411;-50
2021/07/31 04:46:39;;;;;;;28.77;14.68;;;29.20;99.90;;;;;;5093418;28;20070;-49
2021/07/31 04:49:07;;;;;;;28.90;15.07;;;29.20;99.90;;;;;;5074034;28;20189;-49
2021/07/31 04:51:35;;;;;;;25.88;15.50;;;29.30;99.90;;;;;;5093394;28;20044;-48
2021/07/31 04:54:02;;;;;;;30.63;15.57;;;29.30;99.90;;;;;;5092592;28;20381;-49
2021/07/31 04:56:30;;;;;;;30.67;14.63;;;29.30;99.90;;;;;;5092919;28;20048;-49
2021/07/31 04:58:57;;;;;;;33.38;17.02;;;29.30;99.90;;;;;;5092588;28;20051;-49
2021/07/31 05:01:25;;;;;;;30.05;15.05;;;29.30;99.90;;;;;;5093254;28;20044;-47
2021/07/31 05:03:53;;;;;;;23.08;15.13;;;29.40;99.90;;;;;;5092883;28;20058;-47
2021/07/31 05:06:23;;;;;;;25.20;16.05;;;29.40;99.90;;;;;;5091422;28;20438;-48
2021/07/31 05:08:51;;;;;;;31.80;14.35;;;29.50;99.90;;;;;;5091058;28;20514;-48
2021/07/31 05:11:21;;;;;;;23.67;13.25;;;29.50;99.90;;;;;;5092829;28;20444;-47
2021/07/31 05:13:50;;;;;;;20.23;12.13;;;29.50;99.90;;;;;;5091455;28;20476;-48
2021/07/31 05:16:18;;;;;;;19.15;12.73;;;29.60;99.90;;;;;;5092586;28;20446;-48
2021/07/31 05:18:46;;;;;;;18.42;12.27;;;29.50;99.90;;;;;;5092361;28;20497;-47
2021/07/31 05:21:13;;;;;;;18.48;11.82;;;29.60;99.90;;;;;;5098592;28;20048;-48
2021/07/31 05:23:41;;;;;;;27.67;11.65;;;29.60;99.90;;;;;;5072598;28;20486;-48
2021/07/31 05:26:10;;;;;;;23.70;11.55;;;29.60;99.90;;;;;;5092641;28;20057;-48
2021/07/31 05:28:38;;;;;;;16.23;11.35;;;29.70;99.90;;;;;;5093070;28;20040;-48
2021/07/31 05:31:05;;;;;;;18.33;10.98;;;29.70;99.90;;;;;;5092416;28;20486;-50
2021/07/31 05:33:33;;;;;;;18.85;9.75;;;29.70;99.90;;;;;;5074841;28;20109;-48
2021/07/31 05:36:08;;;;;;;17.50;11.18;;;29.80;99.90;;;;;;5092009;28;20072;-49
2021/07/31 05:38:37;;;;;;;17.23;9.95;;;29.80;99.90;;;;;;5092948;28;20047;-48
2021/07/31 05:41:05;;;;;;;18.10;11.13;;;29.90;99.90;;;;;;5080810;28;20071;-51
2021/07/31 05:43:33;;;;;;;16.08;10.38;;;30.00;99.90;;;;;;5092682;28;20433;-48
2021/07/31 05:46:00;;;;;;;12.20;10.30;;;30.20;99.90;;;;;;5092204;28;20502;-48
2021/07/31 05:48:28;;;;;;;14.45;9.15;;;30.40;99.90;;;;;;5091472;28;20051;-48
2021/07/31 05:50:56;;;;;;;14.15;8.70;;;30.60;99.90;;;;;;5092084;28;20036;-48
2021/07/31 05:53:24;;;;;;;13.77;8.55;;;30.80;99.90;;;;;;5075090;28;20436;-50
2021/07/31 05:55:52;;;;;;;11.85;8.90;;;31.00;99.90;;;;;;5081542;28;20044;-48
2021/07/31 05:58:20;;;;;;;13.52;8.20;;;31.10;99.90;;;;;;5092790;28;20091;-49
2021/07/31 06:00:47;;;;;;;11.55;7.90;;;31.30;99.90;;;;;;5085705;28;20044;-49
2021/07/31 06:03:15;;;;;;;12.73;8.02;;;31.40;99.90;;;;;;5096295;28;20044;-51
2021/07/31 06:05:43;;;;;;;14.05;7.88;;;31.60;99.90;;;;;;5095559;28;20093;-49
2021/07/31 06:08:11;;;;;;;11.77;7.32;;;31.80;99.90;;;;;;5076216;28;20158;-51
2021/07/31 06:10:39;;;;;;;17.13;9.23;;;32.00;99.90;;;;;;5092194;28;20043;-49
2021/07/31 06:13:06;;;;;;;13.38;7.18;;;32.10;98.90;;;;;;5095702;28;20048;-51
2021/07/31 06:15:34;;;;;;;10.57;6.13;;;32.20;98.20;;;;;;5095230;28;20502;-50
2021/07/31 06:18:02;;;;;;;14.13;8.25;;;32.40;97.90;;;;;;5096001;28;20048;-52
2021/07/31 06:20:29;;;;;;;12.75;6.30;;;32.50;97.60;;;;;;5087858;28;20521;-49
2021/07/31 06:22:57;;;;;;;15.25;7.18;;;32.60;97.10;;;;;;5092335;28;20498;-52
2021/07/31 06:25:24;;;;;;;12.50;6.93;;;32.80;96.60;;;;;;5088683;28;20036;-52
2021/07/31 06:27:55;;;;;;;12.48;7.07;;;32.90;96.00;;;;;;5095417;28;20502;-52
2021/07/31 06:30:23;;;;;;;10.85;7.40;;;33.00;95.70;;;;;;5089031;28;20043;-50
2021/07/31 06:32:50;;;;;;;8.75;6.75;;;33.20;95.50;;;;;;5095267;28;20044;-54
2021/07/31 06:35:18;;;;;;;12.20;7.18;;;33.40;95.20;;;;;;5095205;28;20052;-51
2021/07/31 06:37:46;;;;;;;14.70;7.43;;;33.60;94.80;;;;;;5095697;28;20068;-51
2021/07/31 06:40:16;;;;;;;10.50;6.10;;;33.80;94.50;;;;;;5094990;28;20438;-49
2021/07/31 06:42:43;;;;;;;10.15;7.32;;;33.90;93.90;;;;;;5095441;28;20044;-49
2021/07/31 06:45:11;;;;;;;10.65;7.47;;;33.90;93.70;;;;;;5095197;28;20043;-51
2021/07/31 06:47:39;;;;;;;10.40;6.13;;;34.00;93.60;;;;;;5095209;28;20402;-54
2021/07/31 06:50:10;;;;;;;11.48;8.23;;;34.00;93.60;;;;;;5094937;28;20047;-49
2021/07/31 06:52:39;;;;;;;11.98;6.93;;;34.00;93.40;;;;;;5095554;28;20047;-54
2021/07/31 06:55:08;;;;;;;11.52;6.32;;;33.90;92.80;;;;;;5090428;28;20040;-52
2021/07/31 06:57:35;;;;;;;8.55;5.43;;;34.00;92.60;;;;;;5094753;28;20044;-48
2021/07/31 07:00:04;;;;;;;10.98;6.40;;;34.10;92.50;;;;;;5073952;28;20040;-52
2021/07/31 07:02:32;;;;;;;9.15;6.47;;;34.20;92.50;;;;;;5088558;28;20127;-53
2021/07/31 07:05:01;;;;;;;8.45;5.97;;;34.20;92.40;;;;;;5094458;28;20094;-53
2021/07/31 07:07:29;;;;;;;10.52;6.38;;;34.30;92.30;;;;;;5087899;28;20048;-49
2021/07/31 07:09:56;;;;;;;9.50;6.25;;;34.40;91.90;;;;;;5094465;28;20074;-52
2021/07/31 07:12:24;;;;;;;12.45;6.68;;;34.60;91.40;;;;;;5094555;28;20097;-52
2021/07/31 07:14:52;;;;;;;11.60;6.70;;;34.70;91.10;;;;;;5094042;28;20044;-49
2021/07/31 07:17:19;;;;;;;13.32;8.82;;;34.80;90.90;;;;;;5094966;28;20040;-53
2021/07/31 07:19:47;;;;;;;16.30;9.85;;;34.90;90.70;;;;;;5090114;28;20044;-50
2021/07/31 07:22:15;;;;;;;16.58;7.97;;;35.00;90.70;;;;;;5094989;28;20075;-49
2021/07/31 07:24:44;;;;;;;16.80;7.25;;;35.10;90.50;;;;;;5094289;28;20127;-53
2021/07/31 07:27:11;;;;;;;12.43;6.45;;;35.20;90.00;;;;;;5094486;28;20040;-54
2021/07/31 07:29:40;;;;;;;10.48;5.28;;;35.20;89.60;;;;;;5089857;28;20506;-51
2021/07/31 07:32:08;;;;;;;9.10;6.20;;;35.20;89.20;;;;;;5085534;28;20052;-51
2021/07/31 07:34:38;;;;;;;12.63;7.22;;;35.20;87.40;;;;;;5094234;28;20036;-51
2021/07/31 07:37:06;;;;;;;11.68;6.65;;;35.20;87.50;;;;;;5094121;28;20044;-55
2021/07/31 07:39:34;;;;;;;8.63;5.85;;;35.30;86.00;;;;;;5094267;28;20058;-55
2021/07/31 07:42:05;;;;;;;10.20;5.57;;;35.40;84.30;;;;;;5094101;28;20052;-55
2021/07/31 07:44:33;;;;;;;11.43;5.95;;;35.50;83.80;;;;;;5090700;28;20040;-50
2021/07/31 07:47:01;;;;;;;6.50;5.30;;;35.40;83.00;;;;;;5094160;28;20051;-54
2021/07/31 07:49:29;;;;;;;11.20;5.68;;;35.50;83.20;;;;;;5093793;28;20043;-53
2021/07/31 07:51:56;;;;;;;10.65;5.43;;;35.60;83.50;;;;;;5094104;28;20513;-53
2021/07/31 07:54:24;;;;;;;9.80;5.65;;;35.70;82.10;;;;;;5093817;28;20048;-56
2021/07/31 07:56:52;;;;;;;11.27;5.82;;;35.80;80.10;;;;;;5083298;28;20040;-54
2021/07/31 07:59:20;;;;;;;11.02;5.72;;;35.70;79.30;;;;;;5093577;28;20663;-55
2021/07/31 08:01:47;;;;;;;9.10;5.25;;;35.70;77.90;;;;;;5083772;28;20052;-52
2021/07/31 08:04:15;;;;;;;10.77;5.18;;;35.80;77.50;;;;;;5074894;28;20502;-51
2021/07/31 08:06:43;;;;;;;11.57;5.95;;;35.80;78.70;;;;;;5093826;28;20055;-51
2021/07/31 08:09:11;;;;;;;13.57;6.03;;;35.90;78.20;;;;;;5091357;28;20385;-55
2021/07/31 08:11:43;;;;;;;10.68;6.40;;;36.00;78.20;;;;;;5093923;28;20051;-49
2021/07/31 08:14:11;;;;;;;8.65;5.45;;;36.20;77.70;;;;;;5093104;28;20040;-50
2021/07/31 08:16:39;;;;;;;11.98;6.00;;;36.30;76.50;;;;;;5094277;28;20047;-48
2021/07/31 08:19:10;;;;;;;11.45;6.47;;;36.50;75.30;;;;;;5093263;28;20127;-51
2021/07/31 08:21:38;;;;;;;7.32;4.85;;;36.50;72.50;;;;;;5080095;28;20465;-50
2021/07/31 08:24:07;;;;;;;7.28;4.35;;;36.50;72.20;;;;;;5092160;28;20070;-54
2021/07/31 08:26:34;;;;;;;8.15;5.40;;;36.70;72.00;;;;;;5082783;28;20409;-49
2021/07/31 08:29:02;;;;;;;8.05;5.43;;;36.80;71.30;;;;;;5092527;28;20032;-49
2021/07/31 08:31:30;;;;;;;10.55;5.75;;;36.90;70.70;;;;;;5092846;28;20055;-48
2021/07/31 08:33:57;;;;;;;12.43;5.22;;;36.90;68.10;;;;;;5092986;28;20650;-49
2021/07/31 08:36:25;;;;;;;14.55;4.70;;;36.90;68.00;;;;;;5081311;28;20073;-51
2021/07/31 08:38:53;;;;;;;8.57;4.93;;;36.80;68.00;;;;;;5092552;28;20097;-51
2021/07/31 08:41:23;;;;;;;10.32;4.68;;;36.80;66.00;;;;;;5079464;28;20046;-48
2021/07/31 08:43:50;;;;;;;9.57;5.13;;;36.70;66.90;;;;;;5093012;28;20048;-49
2021/07/31 08:46:18;;;;;;;12.23;5.03;;;36.80;67.40;;;;;;5093680;28;20485;-53
2021/07/31 08:48:46;;;;;;;9.63;4.88;;;36.90;67.50;;;;;;5093214;28;20134;-48
2021/07/31 08:51:16;;;;;;;12.45;5.00;;;36.80;66.10;;;;;;5083139;28;20041;-50
2021/07/31 08:53:44;;;;;;;10.02;4.78;;;36.80;64.80;;;;;;5073547;28;20049;-48
2021/07/31 08:56:12;;;;;;;11.00;4.72;;;36.80;64.30;;;;;;5092226;28;20044;-49
2021/07/31 08:58:42;;;;;;;8.27;4.43;;;36.90;64.70;;;;;;5074001;28;20056;-51
2021/07/31 09:01:12;;;;;;;9.73;5.03;;;36.90;64.40;;;;;;5091224;28;20040;-48
2021/07/31 09:03:47;;;;;;;10.25;5.10;;;36.90;63.30;;;;;;5091300;28;20427;-49
2021/07/31 09:06:29;;;;;;;9.98;5.47;;;36.90;62.40;;;;;;5091279;28;20126;-50
2021/07/31 09:08:57;;;;;;;11.18;4.68;;;37.00;62.80;;;;;;5090378;28;20051;-50
2021/07/31 09:11:29;;;;;;;8.85;4.72;;;37.00;61.40;;;;;;5092159;28;20047;-49
2021/07/31 09:14:14;;;;;;;10.05;4.93;;;37.20;60.50;;;;;;5091464;28;20511;-49
2021/07/31 09:16:44;;;;;;;10.85;5.43;;;37.20;61.40;;;;;;5078868;28;20036;-48
2021/07/31 09:19:14;;;;;;;15.15;4.85;;;37.20;62.30;;;;;;5091334;28;20047;-51
2021/07/31 09:21:43;;;;;;;11.20;5.25;;;37.10;62.50;;;;;;5091748;28;20052;-49
2021/07/31 09:24:20;;;;;;;11.38;5.50;;;37.10;61.00;;;;;;5091238;28;20123;-50
2021/07/31 09:26:50;;;;;;;11.20;4.97;;;37.10;60.40;;;;;;5091838;28;20123;-49
2021/07/31 09:29:33;;;;;;;12.68;5.82;;;37.10;60.50;;;;;;5091015;28;20063;-50
2021/07/31 09:32:05;;;;;;;13.20;5.13;;;37.30;59.10;;;;;;5064739;28;20449;-55
2021/07/31 09:34:36;;;;;;;11.45;4.75;;;37.40;58.70;;;;;;5090021;28;20127;-54
2021/07/31 09:37:23;;;;;;;12.43;4.80;;;37.50;58.70;;;;;;5085267;28;20048;-53
2021/07/31 09:39:56;;;;;;;11.38;4.75;;;37.60;58.10;;;;;;5094819;28;20094;-55
2021/07/31 09:42:35;;;;;;;9.65;5.10;;;37.60;57.90;;;;;;5087756;28;20048;-52
2021/07/31 09:45:09;;;;;;;10.63;5.10;;;37.70;58.30;;;;;;5090568;28;20040;-53
2021/07/31 09:47:39;;;;;;;12.82;4.57;;;37.70;57.90;;;;;;5089167;28;20385;-55
2021/07/31 09:50:07;;;;;;;10.98;6.03;;;37.70;58.20;;;;;;5095083;28;20443;-55
2021/07/31 09:52:35;;;;;;;7.57;4.80;;;37.80;57.50;;;;;;5088783;28;20429;-53
2021/07/31 09:55:03;;;;;;;8.88;4.93;;;37.80;57.70;;;;;;5094475;28;20135;-52
2021/07/31 09:57:30;;;;;;;14.07;4.40;;;37.80;57.00;;;;;;5094681;28;20055;-51
2021/07/31 10:00:00;;;;;;;7.95;3.85;;;37.70;56.30;;;;;;5095023;28;20127;-55
2021/07/31 10:02:28;;;;;;;7.63;4.80;;;37.70;56.00;;;;;;5094901;28;20471;-53
2021/07/31 10:04:56;;;;;;;11.70;4.43;;;37.60;55.50;;;;;;5094425;28;20036;-53
2021/07/31 10:07:25;;;;;;;9.45;4.53;;;37.60;55.20;;;;;;5080258;28;20551;-53
2021/07/31 10:09:53;;;;;;;16.60;4.45;;;37.80;54.50;;;;;;5085125;28;20402;-56
2021/07/31 10:12:26;;;;;;;10.18;4.70;;;37.80;54.20;;;;;;5095899;28;20048;-55
2021/07/31 10:14:55;;;;;;;7.72;4.22;;;37.90;53.70;;;;;;5090922;28;20134;-56
2021/07/31 10:17:28;;;;;;;8.57;4.55;;;38.00;52.80;;;;;;5095752;28;20449;-55
2021/07/31 10:19:57;;;;;;;8.65;3.92;;;38.10;52.60;;;;;;5094743;28;20041;-55
2021/07/31 10:22:41;;;;;;;11.27;4.72;;;38.20;53.40;;;;;;5095963;28;20048;-56
2021/07/31 10:25:10;;;;;;;9.95;4.57;;;38.20;54.30;;;;;;5090860;28;20044;-56
2021/07/31 10:27:38;;;;;;;7.57;4.78;;;38.10;55.60;;;;;;5095840;28;20189;-54
2021/07/31 10:30:34;;;;;;;9.20;4.70;;;38.00;56.10;;;;;;5089798;28;20044;-55
2021/07/31 10:33:02;;;;;;;8.32;4.68;;;37.80;56.40;;;;;;5095533;28;20381;-54
2021/07/31 10:35:36;;;;;;;9.45;4.65;;;37.90;56.30;;;;;;5095220;28;20067;-56
2021/07/31 10:38:09;;;;;;;7.32;4.25;;;37.90;55.70;;;;;;5095735;28;20432;-54
2021/07/31 10:40:39;;;;;;;10.18;4.95;;;37.90;55.70;;;;;;5066356;28;20093;-56
2021/07/31 10:43:08;;;;;;;11.75;4.88;;;37.90;55.90;;;;;;5094834;28;20549;-54
2021/07/31 10:45:36;;;;;;;7.90;4.70;;;37.90;56.40;;;;;;5085612;28;20044;-57
2021/07/31 10:48:08;;;;;;;9.45;5.40;;;37.90;56.30;;;;;;5095291;28;20119;-56
2021/07/31 10:50:37;;;;;;;8.48;4.35;;;37.80;55.80;;;;;;5086702;28;20082;-54
2021/07/31 10:53:10;;;;;;;11.13;4.85;;;37.60;55.70;;;;;;5093139;28;20086;-56
2021/07/31 10:55:38;;;;;;;10.32;4.72;;;37.60;55.90;;;;;;5094989;28;20170;-56
2021/07/31 10:58:07;;;;;;;12.05;4.65;;;37.50;55.90;;;;;;5094978;28;20079;-56
2021/07/31 11:00:37;;;;;;;15.20;4.75;;;37.40;55.90;;;;;;5066520;28;20041;-57
2021/07/31 11:03:23;;;;;;;11.27;4.63;;;37.50;56.00;;;;;;5094584;28;20039;-56
2021/07/31 11:05:51;;;;;;;8.98;4.47;;;37.50;55.90;;;;;;5094574;28;20130;-56
2021/07/31 11:08:26;;;;;;;11.10;4.50;;;37.20;55.10;;;;;;5095338;28;20040;-56
2021/07/31 11:10:55;;;;;;;;;;;37.20;55.50;;;;;;5083905;28;20127;-57
2021/07/31 11:13:22;;;;;;;14.77;5.18;;;37.30;55.70;;;;;;5093611;28;19920;-55
2021/07/31 11:15:56;;;;;;;11.52;5.13;;;37.50;55.80;;;;;;5094302;28;20048;-56
2021/07/31 11:18:50;;;;;;;11.18;4.72;;;37.50;55.20;;;;;;5094910;28;20046;-56
2021/07/31 11:21:32;;;;;;;10.82;5.13;;;37.40;55.20;;;;;;5087762;28;20036;-56
2021/07/31 11:24:05;;;;;;;9.63;4.07;;;37.60;55.00;;;;;;5094531;28;20574;-57
2021/07/31 11:26:50;;;;;;;7.97;3.85;;;37.50;54.10;;;;;;5067273;28;20135;-56
2021/07/31 11:29:21;;;;;;;11.40;4.53;;;37.50;54.00;;;;;;5075603;28;20036;-57
2021/07/31 11:32:14;;;;;;;6.25;4.28;;;37.60;53.80;;;;;;5094851;28;20424;-57
2021/07/31 11:34:46;;;;;;;13.20;4.82;;;37.50;53.80;;;;;;5072791;28;20044;-55
2021/07/31 11:37:15;;;;;;;11.35;4.25;;;37.50;54.20;;;;;;5086588;28;20036;-57
2021/07/31 11:39:45;;;;;;;6.30;4.03;;;37.40;53.90;;;;;;5094149;28;20048;-56
2021/07/31 11:42:24;;;;;;;9.57;4.72;;;37.40;53.90;;;;;;5094401;28;20131;-57
2021/07/31 11:45:03;;;;;;;8.43;5.13;;;37.30;53.60;;;;;;5089260;28;20123;-57
2021/07/31 11:47:31;;;;;;;11.35;4.43;;;37.20;53.40;;;;;;5094394;28;20036;-55
2021/07/31 11:50:08;;;;;;;6.22;4.35;;;37.30;53.50;;;;;;5089457;28;20044;-57
2021/07/31 11:52:35;;;;;;;9.27;4.80;;;37.20;53.10;;;;;;5094446;28;20044;-57
2021/07/31 11:55:04;;;;;;;7.30;4.05;;;37.20;53.10;;;;;;5089343;28;20063;-57
2021/07/31 11:57:32;;;;;;;8.15;5.03;;;37.10;53.10;;;;;;5093729;28;20038;-56
2021/07/31 12:00:00;;;;;;;9.82;4.60;;;37.20;53.20;;;;;;5093905;28;20040;-57
2021/07/31 12:02:36;;;;;;;10.50;5.45;;;37.20;53.30;;;;;;5086992;28;20097;-57
2021/07/31 12:05:05;;;;;;;10.25;4.28;;;37.10;53.20;;;;;;5093448;28;20040;-56
2021/07/31 12:07:33;;;;;;;9.50;4.65;;;37.20;53.00;;;;;;5070732;28;20131;-57
2021/07/31 12:10:10;;;;;;;7.05;3.97;;;37.20;52.70;;;;;;5093436;28;20551;-57
2021/07/31 12:12:41;;;;;;;10.88;4.70;;;37.20;52.70;;;;;;5093484;28;20066;-57
2021/07/31 12:15:19;;;;;;;7.53;4.93;;;37.20;52.60;;;;;;5093193;28;20124;-57
2021/07/31 12:17:57;;;;;;;12.45;4.88;;;37.10;52.60;;;;;;5093965;28;20123;-57
2021/07/31 12:20:36;;;;;;;11.75;4.95;;;37.10;52.70;;;;;;5093254;28;20170;-57
2021/07/31 12:23:06;;;;;;;9.32;5.35;;;37.10;52.90;;;;;;5093698;28;20058;-57
2021/07/31 12:25:35;;;;;;;8.65;5.18;;;37.00;53.00;;;;;;5064782;28;20047;-58
2021/07/31 12:28:10;;;;;;;17.70;6.00;;;37.10;53.60;;;;;;5092275;28;20119;-57
2021/07/31 12:30:38;;;;;;;9.95;5.30;;;37.00;53.10;;;;;;5093282;28;20461;-57
2021/07/31 12:33:05;;;;;;;11.02;5.00;;;36.90;53.10;;;;;;5093127;28;20123;-57
2021/07/31 12:36:03;;;;;;;11.40;6.82;;;36.70;52.90;;;;;;5092886;28;20032;-57
2021/07/31 12:38:31;;;;;;;13.55;5.07;;;36.60;53.10;;;;;;5057286;28;20052;-57
2021/07/31 12:41:01;;;;;;;9.85;6.25;;;36.60;53.10;;;;;;5079991;28;20044;-57
2021/07/31 12:43:30;;;;;;;10.05;4.18;;;36.60;53.20;;;;;;5093369;28;20047;-57
2021/07/31 12:46:00;;;;;;;7.72;4.15;;;36.60;52.80;;;;;;5081310;28;20113;-58
2021/07/31 12:48:28;;;;;;;9.18;4.50;;;36.60;52.70;;;;;;5092675;28;20047;-57
2021/07/31 12:50:57;;;;;;;12.80;5.07;;;36.60;52.70;;;;;;5092543;28;20043;-57
2021/07/31 12:53:27;;;;;;;8.32;4.30;;;36.70;53.20;;;;;;5093498;28;20150;-57